createdAt,value
2023-01-18T00:00:47.070Z,13.07
2023-01-18T00:03:14.187Z,13.23
2023-01-18T00:05:42.157Z,13.20
2023-01-18T00:08:14.321Z,13.67
2023-01-18T00:10:41.051Z,12.13
2023-01-18T00:13:08.150Z,12.47
2023-01-18T00:15:35.800Z,13.07
2023-01-18T00:18:03.186Z,12.10
2023-01-18T00:20:30.779Z,12.03
2023-01-18T00:23:00.038Z,12.20
2023-01-18T00:25:27.361Z,12.43
2023-01-18T00:27:54.993Z,11.87
2023-01-18T00:30:26.814Z,12.90
2023-01-18T00:32:56.004Z,13.07
2023-01-18T00:35:23.405Z,13.77
2023-01-18T00:37:51.628Z,14.33
2023-01-18T00:40:19.895Z,15.17
2023-01-18T00:43:05.074Z,15.13
2023-01-18T00:45:32.190Z,15.50
2023-01-18T00:47:59.317Z,15.20
2023-01-18T00:50:26.502Z,16.63
2023-01-18T00:55:25.119Z,17.43
2023-01-18T00:57:52.339Z,16.00
2023-01-18T01:00:19.285Z,16.50
2023-01-18T01:02:47.725Z,16.03
2023-01-18T01:05:40.402Z,15.43
2023-01-18T01:08:07.719Z,14.87
2023-01-18T01:10:35.606Z,15.43
2023-01-18T01:13:21.635Z,14.67
2023-01-18T01:16:07.067Z,13.93
2023-01-18T01:18:53.058Z,14.23
2023-01-18T01:21:38.976Z,13.63
2023-01-18T01:24:24.900Z,13.00
2023-01-18T01:26:51.986Z,13.63
2023-01-18T01:29:18.681Z,12.43
2023-01-18T01:31:45.334Z,13.37
2023-01-18T01:34:12.390Z,12.63
2023-01-18T01:36:39.507Z,12.17
2023-01-18T01:39:08.631Z,11.83
2023-01-18T01:41:35.991Z,12.83
2023-01-18T01:44:04.675Z,12.40
2023-01-18T01:46:50.563Z,13.00
2023-01-18T01:49:20.645Z,12.20
2023-01-18T01:51:58.909Z,13.00
2023-01-18T01:54:27.482Z,13.17
2023-01-18T01:56:57.441Z,12.17
2023-01-18T01:59:24.583Z,13.27
2023-01-18T02:01:51.804Z,13.80
2023-01-18T02:04:19.058Z,12.87
2023-01-18T02:06:46.134Z,12.37
2023-01-18T02:09:15.895Z,12.90
2023-01-18T02:11:43.787Z,12.90
2023-01-18T02:14:12.534Z,13.47
2023-01-18T02:16:58.275Z,12.47
2023-01-18T02:19:28.639Z,13.03
2023-01-18T02:22:08.955Z,11.43
2023-01-18T02:24:59.032Z,12.33
2023-01-18T02:27:43.451Z,12.90
2023-01-18T02:30:17.076Z,13.07
2023-01-18T02:32:56.649Z,13.40
2023-01-18T02:35:32.544Z,13.07
2023-01-18T02:38:17.774Z,11.60
2023-01-18T02:40:56.499Z,12.70
2023-01-18T02:43:43.740Z,12.13
2023-01-18T02:46:31.134Z,11.80
2023-01-18T02:48:58.957Z,11.47
2023-01-18T02:51:26.061Z,12.80
2023-01-18T02:53:52.811Z,13.07
2023-01-18T02:56:25.904Z,12.67
2023-01-18T02:58:55.760Z,12.07
2023-01-18T03:01:41.777Z,11.83
2023-01-18T03:04:15.282Z,11.83
2023-01-18T03:06:45.123Z,11.83
2023-01-18T03:09:18.366Z,13.17
2023-01-18T03:11:54.984Z,13.10
2023-01-18T03:15:01.586Z,13.47
2023-01-18T03:17:40.681Z,11.60
2023-01-18T03:20:14.666Z,11.70
2023-01-18T03:23:24.710Z,11.63
2023-01-18T03:25:54.796Z,11.90
2023-01-18T03:28:46.686Z,12.90
2023-01-18T03:31:37.161Z,12.93
2023-01-18T03:34:19.372Z,12.90
2023-01-18T03:36:49.274Z,12.83
2023-01-18T03:39:38.511Z,12.30
2023-01-18T03:42:11.947Z,13.03
2023-01-18T03:45:03.176Z,13.90
2023-01-18T03:47:30.285Z,12.53
2023-01-18T03:49:58.098Z,13.23
2023-01-18T03:52:39.014Z,12.20
2023-01-18T03:55:10.273Z,13.27
2023-01-18T03:58:09.754Z,13.27
2023-01-18T04:00:40.768Z,11.90
2023-01-18T04:03:07.881Z,12.73
2023-01-18T04:05:35.318Z,12.50
2023-01-18T04:08:02.518Z,12.33
2023-01-18T04:10:29.612Z,12.67
2023-01-18T04:12:57.555Z,13.30
2023-01-18T04:15:24.461Z,12.60
2023-01-18T04:17:53.412Z,12.57
2023-01-18T04:20:20.547Z,12.53
2023-01-18T04:22:52.007Z,13.00
2023-01-18T04:25:19.366Z,13.20
2023-01-18T04:27:46.518Z,12.30
2023-01-18T04:30:14.218Z,14.87
2023-01-18T04:32:42.740Z,13.20
2023-01-18T04:35:10.275Z,14.73
2023-01-18T04:37:38.328Z,14.07
2023-01-18T04:40:06.220Z,13.73
2023-01-18T04:42:33.401Z,13.33
2023-01-18T04:45:00.663Z,13.90
2023-01-18T04:47:31.119Z,12.90
2023-01-18T04:49:58.250Z,13.20
2023-01-18T04:52:26.691Z,13.90
2023-01-18T04:54:53.866Z,12.67
2023-01-18T04:57:20.996Z,12.17
2023-01-18T04:59:47.690Z,13.30
2023-01-18T05:02:15.394Z,12.97
2023-01-18T05:04:43.564Z,13.30
2023-01-18T05:07:11.194Z,12.33
2023-01-18T05:09:38.330Z,12.03
2023-01-18T05:12:05.421Z,12.13
2023-01-18T05:14:32.532Z,12.67
2023-01-18T05:16:59.216Z,12.13
2023-01-18T05:19:30.303Z,12.43
2023-01-18T05:21:57.473Z,12.77
2023-01-18T05:24:24.613Z,12.37
2023-01-18T05:26:51.264Z,11.67
2023-01-18T05:29:18.391Z,11.70
2023-01-18T05:31:45.230Z,12.00
2023-01-18T05:34:12.367Z,11.43
2023-01-18T05:36:39.509Z,11.63
2023-01-18T05:39:06.752Z,11.23
2023-01-18T05:41:33.806Z,11.83
2023-01-18T05:44:01.949Z,11.50
2023-01-18T05:46:29.047Z,12.13
2023-01-18T05:48:59.304Z,12.37
2023-01-18T05:51:26.447Z,13.17
2023-01-18T05:53:53.517Z,13.57
2023-01-18T05:56:20.596Z,14.40
2023-01-18T05:58:47.368Z,14.03
2023-01-18T06:01:14.558Z,13.20
2023-01-18T06:03:41.700Z,12.10
2023-01-18T06:06:08.833Z,16.70
2023-01-18T06:08:35.749Z,15.07
2023-01-18T06:11:02.945Z,13.80
2023-01-18T06:13:31.050Z,13.23
2023-01-18T06:15:58.927Z,13.30
2023-01-18T06:18:26.826Z,12.47
2023-01-18T06:21:01.551Z,12.30
2023-01-18T06:23:29.347Z,13.27
2023-01-18T06:25:56.931Z,11.80
2023-01-18T06:28:24.092Z,12.10
2023-01-18T06:30:55.291Z,18.67
2023-01-18T06:33:22.953Z,18.13
2023-01-18T06:35:50.031Z,24.83
2023-01-18T06:38:16.693Z,16.63
2023-01-18T06:40:43.757Z,12.03
2023-01-18T06:43:13.826Z,12.27
2023-01-18T06:45:41.376Z,11.87
2023-01-18T06:48:08.655Z,11.80
2023-01-18T06:50:35.878Z,12.57
2023-01-18T06:53:02.981Z,13.03
2023-01-18T06:55:30.048Z,11.60
2023-01-18T06:57:57.135Z,11.23
2023-01-18T07:00:23.995Z,12.07
2023-01-18T07:02:53.502Z,12.70
2023-01-18T07:05:20.857Z,12.07
2023-01-18T07:07:47.572Z,16.60
2023-01-18T07:10:16.503Z,13.93
2023-01-18T07:12:48.453Z,13.33
2023-01-18T07:15:21.995Z,13.40
2023-01-18T07:17:50.380Z,13.00
2023-01-18T07:20:17.755Z,13.03
2023-01-18T07:22:44.851Z,12.63
2023-01-18T07:25:13.313Z,11.33
2023-01-18T07:27:43.509Z,12.23
2023-01-18T07:30:14.714Z,12.20
2023-01-18T07:32:49.289Z,11.77
2023-01-18T07:35:17.176Z,11.43
2023-01-18T07:37:48.076Z,11.07
2023-01-18T07:40:15.512Z,12.20
2023-01-18T07:42:42.657Z,10.93
2023-01-18T07:45:10.339Z,12.73
2023-01-18T07:47:39.593Z,11.77
2023-01-18T07:50:06.883Z,12.07
2023-01-18T07:52:33.576Z,11.93
2023-01-18T07:55:00.663Z,11.80
2023-01-18T07:57:27.736Z,12.27
2023-01-18T07:59:54.491Z,11.60
2023-01-18T08:02:21.650Z,11.70
2023-01-18T08:04:52.368Z,10.87
2023-01-18T08:07:19.915Z,10.93
2023-01-18T08:09:46.649Z,12.60
2023-01-18T08:12:17.972Z,12.20
2023-01-18T08:14:46.040Z,12.20
2023-01-18T08:17:13.446Z,11.53
2023-01-18T08:19:40.529Z,11.87
2023-01-18T08:22:07.965Z,11.87
2023-01-18T08:24:34.821Z,12.90
2023-01-18T08:27:01.575Z,12.53
2023-01-18T08:29:28.665Z,12.53
2023-01-18T08:31:56.107Z,11.63
2023-01-18T08:34:23.227Z,12.37
2023-01-18T08:36:51.030Z,12.93
2023-01-18T08:39:17.783Z,13.37
2023-01-18T08:41:46.572Z,13.27
2023-01-18T08:44:13.774Z,13.37
2023-01-18T08:46:40.586Z,13.10
2023-01-18T08:49:07.891Z,14.30
2023-01-18T08:51:34.783Z,13.47
2023-01-18T08:54:02.060Z,13.13
2023-01-18T08:56:29.228Z,12.13
2023-01-18T08:58:57.572Z,12.60
2023-01-18T09:01:25.053Z,12.13
2023-01-18T09:03:56.227Z,12.87
2023-01-18T09:06:22.941Z,13.93
2023-01-18T09:08:50.057Z,14.03
2023-01-18T09:11:18.591Z,13.90
2023-01-18T09:13:59.838Z,13.07
2023-01-18T09:16:27.549Z,14.80
2023-01-18T09:18:56.087Z,14.00
2023-01-18T09:21:23.314Z,13.60
2023-01-18T09:23:50.945Z,14.20
2023-01-18T09:26:20.526Z,13.87
2023-01-18T09:28:49.717Z,13.90
2023-01-18T09:31:16.649Z,14.33
2023-01-18T09:33:51.281Z,14.23
2023-01-18T09:36:21.521Z,13.50
2023-01-18T09:38:48.729Z,14.07
2023-01-18T09:41:29.037Z,14.93
2023-01-18T09:43:58.101Z,13.83
2023-01-18T09:46:25.527Z,14.20
2023-01-18T09:49:02.436Z,14.57
2023-01-18T09:51:34.250Z,14.97
2023-01-18T09:54:24.729Z,15.10
2023-01-18T09:56:54.692Z,15.13
2023-01-18T09:59:25.200Z,15.40
2023-01-18T10:01:55.074Z,15.30
2023-01-18T10:04:32.469Z,15.63
2023-01-18T10:07:07.094Z,14.97
2023-01-18T10:09:49.681Z,14.50
2023-01-18T10:12:31.511Z,14.50
2023-01-18T10:15:07.560Z,14.70
2023-01-18T10:17:38.688Z,14.83
2023-01-18T10:20:16.858Z,15.23
2023-01-18T10:23:19.177Z,15.33
2023-01-18T10:25:54.317Z,14.77
2023-01-18T10:28:40.148Z,13.83
2023-01-18T10:31:22.544Z,15.50
2023-01-18T10:33:52.689Z,14.53
2023-01-18T10:36:47.383Z,14.97
2023-01-18T10:39:27.896Z,16.53
2023-01-18T10:41:59.261Z,15.63
2023-01-18T10:44:25.992Z,15.83
2023-01-18T10:47:11.983Z,14.70
2023-01-18T10:49:40.948Z,15.50
2023-01-18T10:52:28.739Z,14.93
2023-01-18T10:54:58.055Z,14.23
2023-01-18T10:57:27.405Z,14.90
2023-01-18T10:59:56.558Z,15.03
2023-01-18T11:02:29.483Z,15.93
2023-01-18T11:05:01.586Z,16.37
2023-01-18T11:07:29.627Z,16.37
2023-01-18T11:10:01.551Z,16.30
2023-01-18T11:12:34.769Z,16.00
2023-01-18T11:15:14.127Z,14.93
2023-01-18T11:17:42.155Z,15.73
2023-01-18T11:20:29.655Z,15.60
2023-01-18T11:22:59.837Z,15.13
2023-01-18T11:25:28.012Z,13.73
2023-01-18T11:28:02.130Z,14.63
2023-01-18T11:30:29.141Z,14.50
2023-01-18T11:33:00.036Z,14.57
2023-01-18T11:35:33.509Z,14.80
2023-01-18T11:38:02.212Z,13.63
2023-01-18T11:40:30.750Z,14.13
2023-01-18T11:43:20.449Z,15.37
2023-01-18T11:46:12.994Z,13.90
2023-01-18T11:48:53.500Z,14.03
2023-01-18T11:51:33.888Z,12.90
2023-01-18T11:54:13.337Z,13.73
2023-01-18T11:56:47.012Z,13.00
2023-01-18T11:59:34.329Z,14.00
2023-01-18T12:02:10.611Z,13.00
2023-01-18T12:04:46.598Z,13.10
2023-01-18T12:07:44.476Z,13.47
2023-01-18T12:10:25.202Z,14.03
2023-01-18T12:13:17.720Z,14.83
2023-01-18T12:16:00.905Z,13.70
2023-01-18T12:18:38.222Z,13.33
2023-01-18T12:21:11.765Z,12.33
2023-01-18T12:23:44.789Z,12.37
2023-01-18T12:26:54.727Z,11.70
2023-01-18T12:29:30.924Z,9.40
2023-01-18T12:32:09.016Z,10.33
2023-01-18T12:34:42.363Z,9.10
2023-01-18T12:37:47.819Z,8.13
2023-01-18T12:40:43.931Z,10.00
2023-01-18T12:43:14.207Z,8.37
2023-01-18T12:45:42.751Z,7.73
2023-01-18T12:48:24.594Z,7.60
2023-01-18T12:50:52.389Z,7.60
2023-01-18T12:53:40.184Z,7.93
2023-01-18T12:56:15.982Z,7.40
2023-01-18T12:58:44.085Z,7.20
2023-01-18T13:01:15.110Z,8.07
2023-01-18T13:03:44.166Z,8.97
2023-01-18T13:06:11.470Z,8.20
2023-01-18T13:08:42.696Z,8.10
2023-01-18T13:11:11.543Z,7.77
2023-01-18T13:13:39.345Z,8.00
2023-01-18T13:16:17.074Z,6.40
2023-01-18T13:19:06.554Z,6.07
2023-01-18T13:21:39.090Z,6.80
2023-01-18T13:24:17.614Z,6.73
2023-01-18T13:26:44.517Z,6.00
2023-01-18T13:29:20.759Z,7.13
2023-01-18T13:31:48.128Z,5.63
2023-01-18T13:34:44.460Z,5.97
2023-01-18T13:37:34.595Z,6.40
2023-01-18T13:40:01.357Z,5.70
2023-01-18T13:42:35.258Z,6.47
2023-01-18T13:45:14.690Z,6.07
2023-01-18T13:47:43.977Z,6.23
2023-01-18T13:50:28.981Z,6.30
2023-01-18T13:53:13.845Z,5.67
2023-01-18T13:55:59.739Z,5.33
2023-01-18T13:58:31.968Z,6.00
2023-01-18T14:01:05.772Z,6.50
2023-01-18T14:03:39.100Z,5.60
2023-01-18T14:06:09.111Z,3.90
2023-01-18T14:08:38.226Z,4.40
2023-01-18T14:11:10.992Z,4.13
2023-01-18T14:14:02.872Z,4.63
2023-01-18T14:16:52.305Z,4.50
2023-01-18T14:19:21.079Z,4.33
2023-01-18T14:22:17.395Z,7.13
2023-01-18T14:25:02.735Z,4.57
2023-01-18T14:27:36.464Z,4.13
2023-01-18T14:30:25.565Z,4.77
2023-01-18T14:33:16.751Z,4.37
2023-01-18T14:35:55.088Z,4.50
2023-01-18T14:38:21.837Z,4.67
2023-01-18T14:40:51.321Z,4.20
2023-01-18T14:43:29.774Z,4.67
2023-01-18T14:46:25.829Z,4.60
2023-01-18T14:48:57.805Z,5.30
2023-01-18T14:51:28.140Z,4.73
2023-01-18T14:53:59.088Z,5.10
2023-01-18T14:56:27.643Z,4.90
2023-01-18T14:59:00.642Z,5.20
2023-01-18T15:01:30.615Z,6.23
2023-01-18T15:04:00.764Z,5.77
2023-01-18T15:07:03.720Z,5.80
2023-01-18T15:09:32.843Z,5.57
2023-01-18T15:12:04.173Z,5.73
2023-01-18T15:14:35.885Z,5.70
2023-01-18T15:17:07.812Z,6.13
2023-01-18T15:19:42.331Z,6.77
2023-01-18T15:22:12.998Z,5.83
2023-01-18T15:24:42.722Z,8.43
2023-01-18T15:27:18.520Z,8.47
2023-01-18T15:29:53.902Z,7.60
2023-01-18T15:32:30.067Z,6.30
2023-01-18T15:34:58.196Z,5.73
2023-01-18T15:37:34.094Z,7.47
2023-01-18T15:40:22.545Z,7.47
2023-01-18T15:42:49.593Z,8.50
2023-01-18T15:45:25.875Z,6.70
2023-01-18T15:47:55.181Z,5.97
2023-01-18T15:50:25.625Z,5.57
2023-01-18T15:53:11.810Z,5.80
2023-01-18T15:55:46.417Z,6.40
2023-01-18T15:58:24.714Z,6.53
2023-01-18T16:01:07.811Z,6.30
2023-01-18T16:03:38.350Z,6.53
2023-01-18T16:06:17.067Z,6.43
2023-01-18T16:08:58.992Z,5.70
2023-01-18T16:11:33.332Z,6.37
2023-01-18T16:14:07.877Z,6.57
2023-01-18T16:16:42.530Z,5.70
2023-01-18T16:19:21.979Z,6.20
2023-01-18T16:21:52.771Z,6.53
2023-01-18T16:24:28.516Z,6.30
2023-01-18T16:26:57.289Z,6.77
2023-01-18T16:29:24.941Z,7.10
2023-01-18T16:31:52.443Z,6.30
2023-01-18T16:34:22.962Z,6.67
2023-01-18T16:36:52.048Z,7.33
2023-01-18T16:39:20.676Z,7.27
2023-01-18T16:41:57.556Z,8.00
2023-01-18T16:44:26.395Z,7.33
2023-01-18T16:46:54.039Z,7.40
2023-01-18T16:49:21.659Z,6.87
2023-01-18T16:51:50.558Z,7.50
2023-01-18T16:54:18.164Z,6.50
2023-01-18T16:56:47.541Z,8.00
2023-01-18T16:59:22.021Z,8.17
2023-01-18T17:01:51.287Z,7.43
2023-01-18T17:04:18.999Z,7.30
2023-01-18T17:06:46.612Z,6.60
2023-01-18T17:09:23.864Z,9.07
2023-01-18T17:11:51.912Z,12.47
2023-01-18T17:14:19.999Z,18.20
2023-01-18T17:16:49.002Z,8.77
2023-01-18T17:19:18.600Z,9.30
2023-01-18T17:21:47.041Z,8.40
2023-01-18T17:24:15.401Z,7.90
2023-01-18T17:26:43.778Z,7.27
2023-01-18T17:29:17.574Z,7.20
2023-01-18T17:31:52.233Z,6.37
2023-01-18T17:34:26.711Z,5.77
2023-01-18T17:36:55.733Z,5.57
2023-01-18T17:39:24.966Z,5.70
2023-01-18T17:41:58.793Z,5.50
2023-01-18T17:44:36.889Z,6.50
2023-01-18T17:47:04.340Z,6.97
2023-01-18T17:49:31.025Z,5.97
2023-01-18T17:51:58.070Z,6.10
2023-01-18T17:54:24.817Z,5.70
2023-01-18T17:56:53.071Z,6.07
2023-01-18T17:59:20.504Z,5.80
2023-01-18T18:01:47.695Z,5.47
2023-01-18T18:04:15.161Z,6.17
2023-01-18T18:06:49.747Z,7.50
2023-01-18T18:09:20.988Z,6.10
2023-01-18T18:11:47.952Z,6.57
2023-01-18T18:14:15.057Z,6.10
2023-01-18T18:16:43.776Z,5.70
2023-01-18T18:19:14.531Z,5.73
2023-01-18T18:21:42.388Z,6.67
2023-01-18T18:24:09.635Z,6.97
2023-01-18T18:26:36.743Z,7.10
2023-01-18T18:29:04.923Z,7.10
2023-01-18T18:31:32.035Z,6.30
2023-01-18T18:33:59.205Z,7.67
2023-01-18T18:36:27.488Z,8.03
2023-01-18T18:38:54.410Z,7.67
2023-01-18T18:41:21.460Z,7.07
2023-01-18T18:43:48.555Z,8.30
2023-01-18T18:46:15.740Z,7.47
2023-01-18T18:48:42.913Z,8.03
2023-01-18T18:51:09.898Z,7.83
2023-01-18T18:53:41.113Z,7.87
2023-01-18T18:56:11.753Z,7.93
2023-01-18T18:58:39.534Z,7.73
2023-01-18T19:01:16.860Z,7.07
2023-01-18T19:03:44.092Z,7.30
2023-01-18T19:06:11.718Z,7.03
2023-01-18T19:08:38.496Z,7.67
2023-01-18T19:11:05.607Z,7.37
2023-01-18T19:13:32.768Z,6.90
2023-01-18T19:15:59.893Z,6.90
2023-01-18T19:18:26.785Z,6.90
2023-01-18T19:20:53.969Z,6.87
2023-01-18T19:23:21.275Z,6.47
2023-01-18T19:25:49.095Z,6.53
2023-01-18T19:28:16.549Z,7.00
2023-01-18T19:30:44.132Z,6.33
2023-01-18T19:33:12.038Z,6.90
2023-01-18T19:35:40.880Z,7.57
2023-01-18T19:38:08.412Z,8.90
2023-01-18T19:40:35.571Z,10.50
2023-01-18T19:43:03.035Z,9.10
2023-01-18T19:45:31.079Z,9.20
2023-01-18T19:47:59.534Z,8.83
2023-01-18T19:50:27.271Z,8.93
2023-01-18T19:52:54.351Z,8.83
2023-01-18T19:55:21.730Z,7.50
2023-01-18T19:57:49.395Z,7.30
2023-01-18T20:00:16.740Z,6.67
2023-01-18T20:02:44.178Z,6.80
2023-01-18T20:05:10.960Z,6.60
2023-01-18T20:07:38.946Z,7.00
2023-01-18T20:10:06.663Z,6.93
2023-01-18T20:12:33.601Z,6.60
2023-01-18T20:15:00.752Z,5.90
2023-01-18T20:17:27.930Z,7.10
2023-01-18T20:19:55.313Z,6.40
2023-01-18T20:22:23.081Z,6.90
2023-01-18T20:24:49.887Z,6.73
2023-01-18T20:27:17.328Z,7.00
2023-01-18T20:29:44.890Z,6.77
2023-01-18T20:32:17.014Z,6.23
2023-01-18T20:34:46.414Z,7.10
2023-01-18T20:37:14.275Z,7.10
2023-01-18T20:39:41.438Z,6.87
2023-01-18T20:42:08.282Z,7.23
2023-01-18T20:44:35.867Z,7.23
2023-01-18T20:47:03.425Z,7.40
2023-01-18T20:49:37.844Z,7.00
2023-01-18T20:52:06.740Z,6.77
2023-01-18T20:54:35.700Z,6.63
2023-01-18T20:57:03.469Z,8.30
2023-01-18T20:59:30.608Z,7.67
2023-01-18T21:01:57.821Z,7.33
2023-01-18T21:04:25.760Z,8.47
2023-01-18T21:06:52.881Z,7.47
2023-01-18T21:09:19.967Z,6.73
2023-01-18T21:11:47.067Z,7.17
2023-01-18T21:14:14.165Z,6.80
2023-01-18T21:16:41.300Z,7.80
2023-01-18T21:19:10.141Z,7.60
2023-01-18T21:21:37.257Z,6.70
2023-01-18T21:24:04.177Z,6.53
2023-01-18T21:26:31.297Z,6.37
2023-01-18T21:28:59.228Z,6.67
2023-01-18T21:31:26.540Z,6.70
2023-01-18T21:33:54.525Z,5.87
2023-01-18T21:36:22.844Z,6.40
2023-01-18T21:38:50.296Z,5.80
2023-01-18T21:41:36.268Z,5.67
2023-01-18T21:44:21.562Z,5.67
2023-01-18T21:46:49.528Z,6.20
2023-01-18T21:49:57.684Z,6.33
2023-01-18T21:52:41.593Z,5.60
2023-01-18T21:55:08.851Z,6.10
2023-01-18T21:57:36.511Z,5.27
2023-01-18T22:00:04.968Z,5.97
2023-01-18T22:02:33.075Z,5.80
2023-01-18T22:05:00.296Z,6.30
2023-01-18T22:07:28.212Z,5.90
2023-01-18T22:10:04.590Z,6.47
2023-01-18T22:12:34.784Z,6.50
2023-01-18T22:15:02.861Z,5.93
2023-01-18T22:17:30.087Z,6.83
2023-01-18T22:19:57.013Z,7.30
2023-01-18T22:22:24.142Z,6.37
2023-01-18T22:24:50.863Z,6.50
2023-01-18T22:27:17.967Z,6.17
2023-01-18T22:29:44.658Z,6.70
2023-01-18T22:32:11.324Z,6.93
2023-01-18T22:34:38.437Z,6.87
2023-01-18T22:37:05.744Z,7.60
2023-01-18T22:39:32.911Z,7.00
2023-01-18T22:41:59.964Z,7.00
2023-01-18T22:44:27.111Z,7.37
2023-01-18T22:46:53.796Z,6.83
2023-01-18T22:49:20.900Z,6.87
2023-01-18T22:51:47.622Z,7.33
2023-01-18T22:54:15.134Z,6.80
2023-01-18T22:56:42.208Z,6.73
2023-01-18T22:59:09.278Z,6.60
2023-01-18T23:01:36.360Z,6.37
2023-01-18T23:04:04.398Z,6.40
2023-01-18T23:06:48.029Z,6.77
2023-01-18T23:09:16.276Z,6.97
2023-01-18T23:11:44.837Z,6.10
2023-01-18T23:14:30.026Z,6.70
2023-01-18T23:17:15.443Z,6.27
2023-01-18T23:19:42.518Z,6.27
2023-01-18T23:22:09.281Z,6.47
2023-01-18T23:24:36.861Z,6.70
2023-01-18T23:27:09.594Z,7.03
2023-01-18T23:29:36.752Z,7.47
2023-01-18T23:32:03.905Z,6.63
2023-01-18T23:34:31.005Z,6.53
2023-01-18T23:36:58.073Z,6.47
2023-01-18T23:39:44.058Z,6.77
2023-01-18T23:42:30.003Z,7.67
2023-01-18T23:45:16.067Z,7.30
2023-01-18T23:48:02.118Z,7.20
2023-01-18T23:50:47.416Z,7.40
2023-01-18T23:53:33.470Z,6.90
2023-01-18T23:56:00.463Z,6.37
2023-01-18T23:58:27.629Z,6.90
